createdAt,value
2022-12-31T00:01:58.507Z,14.30
2022-12-31T00:07:00.593Z,18.65
2022-12-31T00:12:02.574Z,16.70
2022-12-31T00:17:04.651Z,15.68
2022-12-31T00:22:06.568Z,13.32
2022-12-31T00:27:08.610Z,17.35
2022-12-31T00:32:10.603Z,13.93
2022-12-31T00:37:12.538Z,10.52
2022-12-31T00:42:14.480Z,12.60
2022-12-31T00:47:16.566Z,14.30
2022-12-31T00:52:18.589Z,13.77
2022-12-31T00:57:20.605Z,15.38
2022-12-31T01:02:22.718Z,19.17
2022-12-31T01:07:24.754Z,16.70
2022-12-31T01:12:26.822Z,15.48
2022-12-31T01:17:28.868Z,13.63
2022-12-31T01:22:30.846Z,16.40
2022-12-31T01:27:32.756Z,17.02
2022-12-31T01:32:34.908Z,13.45
2022-12-31T01:37:36.880Z,17.00
2022-12-31T01:42:38.875Z,22.25
2022-12-31T01:47:48.603Z,16.38
2022-12-31T01:52:54.354Z,19.05
2022-12-31T01:58:01.416Z,16.33
2022-12-31T02:08:22.451Z,26.58
2022-12-31T02:13:24.613Z,27.17
2022-12-31T02:18:50.286Z,27.20
2022-12-31T02:24:25.974Z,23.38
2022-12-31T02:29:49.650Z,31.60
2022-12-31T02:34:57.139Z,23.77
2022-12-31T02:40:00.698Z,26.40
2022-12-31T02:45:02.732Z,24.08
2022-12-31T02:50:21.842Z,25.80
2022-12-31T02:55:42.463Z,25.08
2022-12-31T03:01:10.393Z,25.65
2022-12-31T03:06:13.823Z,24.75
2022-12-31T03:11:35.764Z,15.23
2022-12-31T03:16:37.860Z,21.17
2022-12-31T03:21:58.385Z,19.23
2022-12-31T03:27:00.424Z,20.10
2022-12-31T03:32:02.628Z,23.08
2022-12-31T03:37:04.641Z,19.17
2022-12-31T03:42:06.993Z,18.08
2022-12-31T03:47:09.021Z,20.17
2022-12-31T03:52:11.084Z,18.70
2022-12-31T03:57:13.209Z,20.08
2022-12-31T04:02:16.267Z,17.75
2022-12-31T04:07:18.653Z,17.85
2022-12-31T04:12:20.672Z,18.48
2022-12-31T04:17:22.824Z,15.48
2022-12-31T04:22:25.114Z,13.63
2022-12-31T04:27:27.170Z,15.15
2022-12-31T04:32:29.280Z,12.65
2022-12-31T04:37:31.259Z,12.35
2022-12-31T04:42:33.325Z,16.58
2022-12-31T04:47:35.369Z,16.10
2022-12-31T04:52:42.719Z,14.35
2022-12-31T04:57:45.142Z,11.68
2022-12-31T05:02:47.339Z,14.60
2022-12-31T05:07:49.392Z,13.60
2022-12-31T05:12:51.321Z,10.80
2022-12-31T05:17:53.259Z,12.57
2022-12-31T05:22:55.676Z,11.18
2022-12-31T05:27:57.617Z,11.93
2022-12-31T05:32:59.635Z,10.45
2022-12-31T05:38:02.146Z,11.80
2022-12-31T05:48:06.387Z,10.43
2022-12-31T05:53:08.382Z,9.52
2022-12-31T05:58:10.450Z,7.88
2022-12-31T06:03:12.760Z,10.18
2022-12-31T06:08:14.803Z,8.13
2022-12-31T06:13:16.858Z,8.88
2022-12-31T06:18:18.981Z,9.35
2022-12-31T06:23:20.979Z,8.55
2022-12-31T06:28:22.976Z,9.20
2022-12-31T06:33:25.123Z,8.27
2022-12-31T06:38:28.840Z,8.88
2022-12-31T06:43:30.944Z,9.82
2022-12-31T06:48:33.098Z,9.73
2022-12-31T06:53:35.215Z,8.80
2022-12-31T06:58:37.926Z,8.85
2022-12-31T07:04:07.298Z,9.63
2022-12-31T07:09:23.893Z,7.78
2022-12-31T07:14:44.144Z,8.43
2022-12-31T07:20:09.553Z,8.18
2022-12-31T07:25:17.147Z,8.85
2022-12-31T07:30:27.941Z,8.57
2022-12-31T07:35:35.041Z,9.35
2022-12-31T07:41:09.932Z,7.60
2022-12-31T07:46:25.220Z,8.98
2022-12-31T07:51:27.640Z,8.98
2022-12-31T08:01:40.181Z,10.23
2022-12-31T08:06:54.236Z,9.13
2022-12-31T08:12:01.430Z,7.78
2022-12-31T08:17:03.771Z,8.70
2022-12-31T08:28:00.611Z,8.18
2022-12-31T08:33:18.609Z,7.82
2022-12-31T08:38:26.578Z,7.00
2022-12-31T08:43:28.507Z,7.43
2022-12-31T08:48:39.057Z,6.78
2022-12-31T08:53:41.466Z,6.60
2022-12-31T08:59:15.560Z,8.48
2022-12-31T09:05:07.320Z,8.65
2022-12-31T09:10:24.515Z,7.20
2022-12-31T09:15:38.540Z,7.28
2022-12-31T09:20:43.338Z,5.82
2022-12-31T09:26:07.501Z,7.80
2022-12-31T09:31:16.873Z,7.00
2022-12-31T09:36:50.033Z,6.60
2022-12-31T09:42:00.936Z,5.93
2022-12-31T09:47:42.295Z,6.68
2022-12-31T09:52:57.060Z,7.47
2022-12-31T09:58:36.885Z,6.25
2022-12-31T10:03:56.889Z,5.57
2022-12-31T10:09:10.987Z,6.55
2022-12-31T10:14:47.747Z,4.47
2022-12-31T10:20:21.000Z,5.38
2022-12-31T10:25:39.177Z,6.22
2022-12-31T10:30:54.423Z,6.57
2022-12-31T10:36:09.398Z,4.88
2022-12-31T10:41:43.711Z,5.05
2022-12-31T10:47:01.191Z,4.97
2022-12-31T10:52:24.375Z,4.90
2022-12-31T10:58:03.963Z,5.20
2022-12-31T11:03:28.822Z,4.57
2022-12-31T11:09:09.094Z,4.47
2022-12-31T11:14:50.700Z,4.45
2022-12-31T11:20:38.056Z,4.60
2022-12-31T11:25:52.111Z,4.80
2022-12-31T11:31:06.550Z,4.63
2022-12-31T11:36:37.592Z,4.65
2022-12-31T11:42:03.611Z,4.82
2022-12-31T11:47:26.608Z,3.63
2022-12-31T11:52:52.346Z,4.70
2022-12-31T11:57:55.508Z,4.03
2022-12-31T12:03:03.944Z,4.03
2022-12-31T12:08:06.536Z,4.03
2022-12-31T12:13:24.249Z,4.20
2022-12-31T12:18:41.113Z,4.13
2022-12-31T12:23:56.919Z,3.35
2022-12-31T12:29:26.617Z,2.70
2022-12-31T12:34:46.063Z,3.42
2022-12-31T12:40:02.955Z,2.53
2022-12-31T12:45:16.229Z,2.67
2022-12-31T12:50:23.906Z,3.05
2022-12-31T12:55:58.959Z,3.20
2022-12-31T13:01:31.580Z,2.13
2022-12-31T13:06:58.580Z,3.90
2022-12-31T13:12:07.557Z,3.70
2022-12-31T13:17:33.164Z,3.40
2022-12-31T13:22:40.755Z,3.30
2022-12-31T13:27:49.304Z,3.25
2022-12-31T13:33:16.377Z,3.83
2022-12-31T13:38:34.088Z,3.80
2022-12-31T13:44:11.373Z,4.00
2022-12-31T13:49:19.392Z,3.85
2022-12-31T13:59:47.068Z,3.45
2022-12-31T14:04:56.930Z,4.00
2022-12-31T14:09:59.395Z,3.88
2022-12-31T14:15:46.068Z,4.03
2022-12-31T14:20:55.035Z,3.47
2022-12-31T14:26:03.849Z,3.67
2022-12-31T14:31:19.996Z,3.83
2022-12-31T14:36:52.768Z,3.30
2022-12-31T14:42:29.558Z,4.00
2022-12-31T14:48:07.094Z,3.83
2022-12-31T14:53:26.640Z,3.78
2022-12-31T14:58:44.799Z,3.70
2022-12-31T15:03:47.094Z,3.45
2022-12-31T15:09:26.558Z,3.17
2022-12-31T15:14:51.318Z,3.38
2022-12-31T15:20:23.973Z,4.40
2022-12-31T15:25:40.508Z,3.88
2022-12-31T15:30:49.069Z,3.75
2022-12-31T15:35:54.999Z,4.15
2022-12-31T15:40:58.355Z,3.50
2022-12-31T15:46:02.151Z,4.78
2022-12-31T15:51:05.698Z,4.80
2022-12-31T15:56:17.332Z,3.67
2022-12-31T16:01:25.286Z,4.50
2022-12-31T16:06:30.740Z,4.03
2022-12-31T16:11:37.610Z,4.10
2022-12-31T16:16:39.654Z,4.15
2022-12-31T16:21:46.387Z,4.43
2022-12-31T16:26:52.027Z,4.43
2022-12-31T16:31:54.871Z,4.22
2022-12-31T16:37:04.716Z,4.40
2022-12-31T16:42:20.323Z,4.97
2022-12-31T16:47:36.104Z,5.65
2022-12-31T16:52:41.251Z,5.38
2022-12-31T16:57:46.682Z,4.68
2022-12-31T17:02:53.515Z,3.92
2022-12-31T17:07:56.011Z,4.70
2022-12-31T17:13:27.743Z,5.18
2022-12-31T17:18:25.931Z,4.63
2022-12-31T17:23:31.813Z,5.75
2022-12-31T17:28:45.274Z,4.70
2022-12-31T17:33:47.791Z,5.45
2022-12-31T17:38:50.780Z,5.68
2022-12-31T17:43:57.205Z,4.32
2022-12-31T17:49:03.977Z,5.43
2022-12-31T17:54:16.345Z,5.07
2022-12-31T17:59:24.149Z,5.53
2022-12-31T18:04:27.107Z,5.03
2022-12-31T18:09:29.400Z,5.93
2022-12-31T18:14:31.781Z,4.80
2022-12-31T18:24:55.871Z,4.97
2022-12-31T18:30:04.119Z,4.68
2022-12-31T18:35:33.277Z,4.68
2022-12-31T18:40:36.612Z,4.22
2022-12-31T18:45:38.758Z,3.25
2022-12-31T18:50:41.678Z,5.82
2022-12-31T18:55:55.805Z,5.72
2022-12-31T19:00:58.081Z,5.25
2022-12-31T19:06:00.298Z,4.20
2022-12-31T19:11:02.598Z,4.25
2022-12-31T19:16:04.923Z,4.03
2022-12-31T19:21:07.302Z,5.22
2022-12-31T19:26:15.401Z,3.78
2022-12-31T19:31:18.448Z,3.92
2022-12-31T19:36:21.065Z,4.95
2022-12-31T19:41:23.176Z,5.40
2022-12-31T19:46:25.560Z,4.57
2022-12-31T19:51:27.619Z,4.50
2022-12-31T19:56:29.750Z,4.75
2022-12-31T20:01:32.081Z,4.47
2022-12-31T20:06:34.326Z,4.22
2022-12-31T20:11:36.422Z,5.60
2022-12-31T20:16:38.517Z,4.85
2022-12-31T20:21:42.256Z,5.00
2022-12-31T20:26:44.324Z,5.10
2022-12-31T20:31:46.528Z,4.95
2022-12-31T20:36:48.881Z,5.57
2022-12-31T20:41:51.099Z,5.90
2022-12-31T20:46:53.142Z,6.60
2022-12-31T20:51:55.187Z,6.75
2022-12-31T21:07:21.253Z,6.15
2022-12-31T21:17:43.455Z,4.60
2022-12-31T21:22:45.581Z,5.93
2022-12-31T21:27:47.753Z,5.80
2022-12-31T21:32:49.897Z,5.72
2022-12-31T21:37:58.480Z,5.25
2022-12-31T21:43:03.092Z,6.43
2022-12-31T21:48:22.223Z,6.90
2022-12-31T21:53:32.126Z,4.57
2022-12-31T21:58:42.170Z,6.18
2022-12-31T22:03:44.790Z,5.85
2022-12-31T22:08:55.019Z,4.78
2022-12-31T22:13:57.853Z,6.18
2022-12-31T22:19:00.063Z,6.30
2022-12-31T22:24:03.440Z,5.22
2022-12-31T22:29:05.461Z,5.80
2022-12-31T22:34:07.506Z,4.60
2022-12-31T22:39:14.595Z,3.72
2022-12-31T22:44:36.549Z,3.03
2022-12-31T22:54:40.512Z,4.35
2022-12-31T22:59:42.610Z,3.65
2022-12-31T23:04:44.701Z,4.00
2022-12-31T23:10:05.495Z,3.45
2022-12-31T23:15:28.911Z,4.20
2022-12-31T23:20:49.186Z,6.05
2022-12-31T23:25:52.754Z,7.57
2022-12-31T23:30:54.786Z,8.00
2022-12-31T23:36:07.191Z,7.00
2022-12-31T23:41:22.313Z,4.53
2022-12-31T23:46:24.832Z,5.70
2022-12-31T23:51:26.961Z,6.15
2022-12-31T23:56:29.006Z,6.28
